Time;durP1;ratioP1;P1;durP2;ratioP2;P2;SDS_P1;SDS_P2;PMS_P1;PMS_P2;Temp;Humidity;BMP_temperature;BMP_pressure;BME280_temperature;BME280_humidity;BME280_pressure;Samples;Min_cycle;Max_cycle;Signal;HPM_P1;HPM_P2
2021/01/17 00:01:43;;;;;;;16.80;10.25;;;0.00;92.20;;;;;;5054372;28;20273;-80
2021/01/17 00:04:10;;;;;;;14.65;10.80;;;0.00;92.50;;;;;;5053974;28;20196;-79
2021/01/17 00:06:36;;;;;;;14.77;11.45;;;0.10;92.40;;;;;;5054817;28;20575;-79
2021/01/17 00:09:03;;;;;;;15.05;10.05;;;0.00;92.40;;;;;;5054139;28;20250;-80
2021/01/17 00:11:29;;;;;;;17.60;12.40;;;0.00;92.50;;;;;;5054131;28;20251;-80
2021/01/17 00:13:56;;;;;;;18.95;10.43;;;0.00;92.60;;;;;;5054911;28;20231;-80
2021/01/17 00:16:23;;;;;;;19.35;12.35;;;0.10;92.40;;;;;;5055345;28;20200;-79
2021/01/17 00:18:49;;;;;;;14.80;10.35;;;0.10;92.30;;;;;;5054053;28;20211;-80
2021/01/17 00:21:16;;;;;;;18.65;12.02;;;0.00;92.70;;;;;;5054302;28;20245;-79
2021/01/17 00:23:42;;;;;;;16.27;10.15;;;0.10;92.50;;;;;;5055350;28;20204;-80
2021/01/17 00:26:09;;;;;;;15.00;11.63;;;0.10;92.60;;;;;;5053421;28;20657;-79
2021/01/17 00:28:35;;;;;;;14.52;10.80;;;0.00;92.40;;;;;;5054070;28;20216;-80
2021/01/17 00:31:02;;;;;;;17.20;10.30;;;0.10;92.60;;;;;;5054216;28;20192;-79
2021/01/17 00:33:29;;;;;;;16.85;10.90;;;0.00;92.50;;;;;;5054379;28;20208;-80
2021/01/17 00:35:55;;;;;;;15.38;11.38;;;0.10;92.90;;;;;;5054418;28;20672;-80
2021/01/17 00:38:22;;;;;;;15.05;11.23;;;0.10;92.50;;;;;;5053584;28;20223;-80
2021/01/17 00:40:48;;;;;;;19.27;12.05;;;0.00;92.50;;;;;;5043180;28;20199;-79
2021/01/17 00:43:14;;;;;;;14.82;10.63;;;0.00;92.60;;;;;;5053237;28;20262;-80
2021/01/17 00:45:41;;;;;;;13.48;10.00;;;0.00;92.60;;;;;;5051860;28;20219;-80
2021/01/17 00:48:08;;;;;;;19.70;12.25;;;0.00;92.80;;;;;;5051804;28;20212;-80
2021/01/17 00:50:35;;;;;;;15.55;11.23;;;0.00;92.80;;;;;;5052073;28;20212;-80
2021/01/17 00:53:02;;;;;;;17.75;11.88;;;0.10;92.60;;;;;;5052687;28;20204;-80
2021/01/17 00:55:28;;;;;;;18.20;12.35;;;0.10;92.50;;;;;;5053277;28;20253;-80
2021/01/17 00:57:54;;;;;;;17.73;12.07;;;0.10;92.50;;;;;;5053695;28;20254;-80
2021/01/17 01:00:24;;;;;;;17.25;12.57;;;0.10;92.40;;;;;;5054105;28;20227;-80
2021/01/17 01:02:51;;;;;;;17.65;13.35;;;0.10;92.30;;;;;;5034353;28;20732;-80
2021/01/17 01:05:18;;;;;;;14.30;12.23;;;0.00;92.20;;;;;;5043294;28;20203;-80
2021/01/17 01:07:45;;;;;;;20.63;13.77;;;0.00;92.50;;;;;;5054016;28;20719;-80
2021/01/17 01:10:13;;;;;;;21.92;13.55;;;0.00;92.80;;;;;;5054593;28;20688;-80
2021/01/17 01:12:40;;;;;;;20.55;13.60;;;0.10;92.70;;;;;;5053905;28;20269;-80
2021/01/17 01:15:07;;;;;;;24.48;14.85;;;0.10;92.50;;;;;;5053047;28;20203;-80
2021/01/17 01:17:34;;;;;;;17.48;13.00;;;0.10;92.40;;;;;;5052386;28;20214;-80
2021/01/17 01:20:01;;;;;;;20.77;13.43;;;0.00;92.40;;;;;;5053387;28;20193;-80
2021/01/17 01:22:27;;;;;;;23.60;14.00;;;0.00;92.70;;;;;;5052680;28;20711;-81
2021/01/17 01:24:54;;;;;;;23.77;15.15;;;0.10;92.60;;;;;;5052386;28;20228;-80
2021/01/17 01:27:21;;;;;;;18.88;13.50;;;0.20;92.50;;;;;;5050092;28;20673;-80
2021/01/17 01:29:47;;;;;;;22.75;14.48;;;0.20;92.40;;;;;;5052571;28;20208;-80
2021/01/17 01:32:14;;;;;;;18.95;13.50;;;0.30;92.40;;;;;;5052894;28;20353;-79
2021/01/17 01:34:40;;;;;;;19.77;13.25;;;0.30;92.20;;;;;;5052230;28;20204;-80
2021/01/17 01:37:07;;;;;;;18.55;13.55;;;0.20;92.00;;;;;;5051520;28;20289;-80
2021/01/17 01:39:33;;;;;;;15.95;12.82;;;0.20;92.20;;;;;;5052294;28;20207;-80
2021/01/17 01:42:05;;;;;;;17.67;12.80;;;0.10;92.10;;;;;;5051903;28;20255;-79
2021/01/17 01:44:32;;;;;;;15.10;12.18;;;0.10;92.20;;;;;;5054645;28;20824;-80
2021/01/17 01:46:58;;;;;;;21.85;13.60;;;0.10;92.10;;;;;;5050460;28;20550;-80
2021/01/17 01:49:26;;;;;;;22.50;13.82;;;0.20;92.00;;;;;;5052004;28;20223;-80
2021/01/17 01:51:54;;;;;;;18.45;12.32;;;0.20;92.00;;;;;;5051830;28;20196;-80
2021/01/17 01:54:20;;;;;;;16.95;12.55;;;0.10;92.00;;;;;;5051939;28;20278;-80
2021/01/17 01:56:46;;;;;;;21.48;13.35;;;0.00;92.20;;;;;;5051214;28;20239;-80
2021/01/17 01:59:14;;;;;;;17.35;11.98;;;-0.10;92.30;;;;;;5051607;28;20578;-80
2021/01/17 02:01:41;;;;;;;20.70;13.85;;;0.00;92.60;;;;;;5048660;28;20250;-80
2021/01/17 02:04:10;;;;;;;20.33;13.57;;;0.00;92.50;;;;;;5052035;28;20634;-80
2021/01/17 02:06:49;;;;;;;20.15;13.90;;;0.00;92.40;;;;;;5047874;28;20332;-79
2021/01/17 02:09:24;;;;;;;18.50;13.00;;;0.00;92.40;;;;;;5048547;28;20290;-80
2021/01/17 02:12:11;;;;;;;18.67;13.63;;;-0.10;92.50;;;;;;5049712;28;20204;-80
2021/01/17 02:14:48;;;;;;;16.30;11.63;;;0.00;92.50;;;;;;5050081;28;20275;-80
2021/01/17 02:17:21;;;;;;;19.92;13.68;;;0.10;92.50;;;;;;5042849;28;20669;-80
2021/01/17 02:20:10;;;;;;;19.05;14.23;;;0.00;92.30;;;;;;5052094;28;20200;-79
2021/01/17 02:22:47;;;;;;;21.88;14.25;;;0.00;92.30;;;;;;5048964;28;20208;-80
2021/01/17 02:25:16;;;;;;;22.02;14.57;;;0.00;92.40;;;;;;5051281;28;20231;-80
2021/01/17 02:27:46;;;;;;;21.05;15.07;;;-0.10;92.40;;;;;;5050190;28;20257;-79
2021/01/17 02:30:14;;;;;;;21.23;14.95;;;-0.10;92.70;;;;;;5051288;28;20198;-80
2021/01/17 02:32:47;;;;;;;21.48;14.55;;;-0.20;92.60;;;;;;5051567;28;20200;-79
2021/01/17 02:35:16;;;;;;;20.65;13.93;;;-0.20;92.80;;;;;;5051706;28;20204;-80
2021/01/17 02:37:53;;;;;;;19.58;13.65;;;-0.20;92.90;;;;;;5051776;28;20345;-80
2021/01/17 02:40:42;;;;;;;20.00;14.55;;;-0.20;93.10;;;;;;5053557;28;20210;-80
2021/01/17 02:43:10;;;;;;;23.52;15.00;;;0.00;93.10;;;;;;5072275;28;20229;-79
2021/01/17 02:45:38;;;;;;;23.05;15.48;;;0.00;93.10;;;;;;5051483;28;20674;-80
2021/01/17 02:48:06;;;;;;;20.98;14.65;;;-0.10;92.80;;;;;;5050726;28;20206;-80
2021/01/17 02:50:34;;;;;;;22.38;15.27;;;-0.10;92.70;;;;;;5049333;28;20192;-80
2021/01/17 02:53:08;;;;;;;26.48;15.07;;;-0.20;92.70;;;;;;5050810;28;20207;-80
2021/01/17 02:55:40;;;;;;;22.42;14.68;;;-0.10;92.70;;;;;;5051007;28;20234;-79
2021/01/17 02:58:09;;;;;;;17.55;14.13;;;-0.10;92.80;;;;;;5050768;28;20218;-80
2021/01/17 03:00:40;;;;;;;22.90;15.07;;;-0.10;92.70;;;;;;5051214;28;20219;-80
2021/01/17 03:03:08;;;;;;;23.20;15.15;;;-0.20;92.80;;;;;;5051299;28;20376;-80
2021/01/17 03:05:37;;;;;;;22.83;15.18;;;-0.10;92.90;;;;;;5051500;28;20207;-80
2021/01/17 03:08:06;;;;;;;19.92;13.80;;;-0.10;93.10;;;;;;5050598;28;20195;-80
2021/01/17 03:10:33;;;;;;;19.17;14.07;;;-0.10;93.00;;;;;;5054999;28;20204;-80
2021/01/17 03:13:01;;;;;;;21.38;14.18;;;-0.10;93.30;;;;;;5055257;28;20574;-80
2021/01/17 03:15:31;;;;;;;22.75;14.75;;;0.00;93.10;;;;;;5055057;28;20210;-80
2021/01/17 03:17:59;;;;;;;21.45;14.68;;;0.00;93.10;;;;;;5054055;28;20250;-80
2021/01/17 03:20:25;;;;;;;20.73;14.73;;;-0.10;92.80;;;;;;5055304;28;20203;-80
2021/01/17 03:22:51;;;;;;;24.02;15.27;;;-0.10;92.90;;;;;;5054637;28;20219;-80
2021/01/17 03:25:18;;;;;;;21.67;14.30;;;0.00;93.30;;;;;;5055227;28;20200;-80
2021/01/17 03:27:45;;;;;;;22.55;15.32;;;-0.10;93.40;;;;;;5053054;28;20253;-80
2021/01/17 03:30:13;;;;;;;22.05;16.77;;;0.00;93.50;;;;;;5054113;28;20200;-80
2021/01/17 03:32:39;;;;;;;21.45;15.00;;;0.00;93.20;;;;;;5054897;28;20199;-80
2021/01/17 03:35:07;;;;;;;25.30;15.20;;;0.10;93.20;;;;;;5054276;28;20204;-79
2021/01/17 03:37:33;;;;;;;22.80;15.18;;;0.10;93.00;;;;;;5054364;28;20215;-80
2021/01/17 03:40:00;;;;;;;28.13;16.48;;;0.10;93.20;;;;;;5054346;28;20200;-80
2021/01/17 03:42:26;;;;;;;25.35;16.13;;;0.10;92.70;;;;;;5054658;28;20220;-80
2021/01/17 03:44:52;;;;;;;23.45;14.88;;;0.00;92.90;;;;;;5057306;28;20204;-80
2021/01/17 03:47:20;;;;;;;23.65;16.08;;;0.00;92.80;;;;;;5074851;28;20235;-80
2021/01/17 03:49:46;;;;;;;26.08;15.20;;;0.00;92.90;;;;;;5068282;28;20200;-80
2021/01/17 03:52:13;;;;;;;22.38;15.55;;;-0.10;92.90;;;;;;5055682;28;20232;-80
2021/01/17 03:54:39;;;;;;;20.05;14.50;;;-0.10;93.10;;;;;;5054640;28;20246;-80
2021/01/17 03:57:06;;;;;;;24.58;15.68;;;0.00;93.20;;;;;;5054463;28;20707;-79
2021/01/17 03:59:32;;;;;;;22.73;14.82;;;-0.10;93.20;;;;;;5054606;28;20261;-80
2021/01/17 04:01:58;;;;;;;23.60;14.60;;;0.00;93.40;;;;;;5054335;28;20219;-80
2021/01/17 04:04:27;;;;;;;21.70;14.90;;;0.00;93.60;;;;;;5054885;28;20196;-79
2021/01/17 04:06:53;;;;;;;22.85;15.15;;;0.10;93.20;;;;;;5055020;28;20211;-80
2021/01/17 04:09:20;;;;;;;25.30;16.60;;;0.20;93.10;;;;;;5055379;28;20238;-80
2021/01/17 04:11:48;;;;;;;19.30;13.68;;;0.00;93.00;;;;;;5054540;28;20200;-80
2021/01/17 04:14:15;;;;;;;20.80;14.98;;;0.00;93.10;;;;;;5053660;28;20562;-80
2021/01/17 04:16:49;;;;;;;23.17;15.15;;;0.10;93.10;;;;;;5053750;28;20536;-80
2021/01/17 04:19:15;;;;;;;21.98;13.68;;;0.10;93.00;;;;;;5053175;28;20640;-80
2021/01/17 04:21:44;;;;;;;21.58;15.65;;;0.00;93.00;;;;;;5054356;28;20207;-80
2021/01/17 04:24:13;;;;;;;19.25;13.40;;;0.20;93.10;;;;;;5054133;28;20712;-80
2021/01/17 04:26:41;;;;;;;23.48;14.23;;;0.10;92.90;;;;;;5052621;28;20300;-80
2021/01/17 04:29:08;;;;;;;19.90;13.85;;;0.10;92.90;;;;;;5054468;28;20196;-80
2021/01/17 04:31:43;;;;;;;23.90;16.42;;;0.10;93.40;;;;;;5054416;28;20226;-80
2021/01/17 04:34:11;;;;;;;21.30;15.38;;;0.00;93.20;;;;;;5054341;28;20199;-80
2021/01/17 04:36:39;;;;;;;20.60;14.73;;;0.00;93.20;;;;;;5054593;28;20208;-80
2021/01/17 04:39:07;;;;;;;19.20;13.70;;;0.10;93.30;;;;;;5053016;28;20207;-80
2021/01/17 04:41:36;;;;;;;20.27;14.38;;;0.10;93.20;;;;;;5053524;28;20306;-80
2021/01/17 04:44:05;;;;;;;21.90;16.13;;;0.10;93.10;;;;;;5053113;28;20273;-80
2021/01/17 04:46:33;;;;;;;19.13;13.88;;;0.20;93.10;;;;;;5053689;28;20200;-80
2021/01/17 04:49:04;;;;;;;18.42;15.38;;;0.10;93.00;;;;;;5052931;28;20212;-80
2021/01/17 04:51:34;;;;;;;23.75;16.05;;;0.10;93.40;;;;;;5052814;28;20673;-80
2021/01/17 04:54:05;;;;;;;23.13;17.15;;;0.10;93.10;;;;;;5053619;28;20200;-80
2021/01/17 04:56:42;;;;;;;22.08;15.25;;;0.00;93.20;;;;;;5052846;28;20204;-80
2021/01/17 04:59:11;;;;;;;24.55;15.05;;;0.20;93.20;;;;;;5053234;28;20233;-80
2021/01/17 05:02:12;;;;;;;26.42;17.73;;;0.20;93.00;;;;;;5053040;28;20204;-80
2021/01/17 05:05:12;;;;;;;21.05;15.93;;;0.20;93.00;;;;;;5053154;28;20245;-80
2021/01/17 05:07:43;;;;;;;23.10;14.50;;;0.20;93.10;;;;;;5033117;28;20200;-80
2021/01/17 05:10:12;;;;;;;26.00;15.73;;;0.10;93.20;;;;;;5046283;28;20196;-80
2021/01/17 05:12:49;;;;;;;21.73;15.48;;;0.00;93.20;;;;;;5054047;28;20200;-80
2021/01/17 05:15:20;;;;;;;20.10;14.05;;;0.00;93.20;;;;;;5052719;28;20200;-80
2021/01/17 05:17:48;;;;;;;24.85;16.60;;;0.00;93.40;;;;;;5052647;28;20241;-80
2021/01/17 05:20:16;;;;;;;22.63;15.88;;;0.10;93.40;;;;;;5052701;28;20203;-80
2021/01/17 05:22:44;;;;;;;25.50;14.50;;;0.20;93.50;;;;;;5052306;28;20216;-80
2021/01/17 05:25:11;;;;;;;26.20;15.18;;;0.20;93.30;;;;;;5052367;28;20196;-80
2021/01/17 05:27:49;;;;;;;22.48;16.05;;;0.10;93.20;;;;;;5031399;28;20263;-80
2021/01/17 05:30:18;;;;;;;20.77;14.73;;;0.20;93.40;;;;;;5040002;28;20288;-80
2021/01/17 05:32:50;;;;;;;28.20;16.55;;;0.20;93.80;;;;;;5052375;28;20656;-80
2021/01/17 05:35:18;;;;;;;22.10;14.48;;;0.20;93.50;;;;;;5052166;28;20196;-80
2021/01/17 05:37:50;;;;;;;27.45;17.65;;;0.20;93.50;;;;;;5052041;28;20191;-80
2021/01/17 05:40:18;;;;;;;22.90;14.68;;;0.20;93.40;;;;;;5052787;28;20207;-80
2021/01/17 05:42:48;;;;;;;21.85;15.68;;;0.30;93.40;;;;;;5053259;28;20589;-81
2021/01/17 05:45:17;;;;;;;22.70;14.80;;;0.30;93.40;;;;;;5053017;28;20326;-80
2021/01/17 05:47:54;;;;;;;22.30;14.20;;;0.30;93.40;;;;;;5051937;28;20622;-80
2021/01/17 05:50:23;;;;;;;25.75;16.17;;;0.30;93.60;;;;;;5052356;28;20206;-80
2021/01/17 05:52:54;;;;;;;23.27;13.95;;;0.30;93.70;;;;;;5052733;28;20223;-80
2021/01/17 05:55:29;;;;;;;19.65;14.90;;;0.30;93.60;;;;;;5052825;28;20795;-80
2021/01/17 05:58:22;;;;;;;20.90;13.32;;;0.40;93.80;;;;;;5041788;28;20214;-80
2021/01/17 06:00:50;;;;;;;19.63;14.85;;;0.40;93.70;;;;;;5051951;28;20665;-80
2021/01/17 06:03:20;;;;;;;22.88;15.98;;;0.40;93.90;;;;;;5051909;28;20768;-80
2021/01/17 06:05:49;;;;;;;23.00;15.88;;;0.50;94.00;;;;;;5051008;28;20572;-80
2021/01/17 06:08:20;;;;;;;22.25;15.77;;;0.30;93.90;;;;;;5051794;28;20207;-80
2021/01/17 06:10:48;;;;;;;24.02;16.70;;;0.30;94.10;;;;;;5051511;28;20215;-80
2021/01/17 06:13:23;;;;;;;22.02;14.75;;;0.40;94.20;;;;;;5052517;28;20207;-81
2021/01/17 06:15:50;;;;;;;22.35;16.25;;;0.50;94.10;;;;;;5051893;28;20199;-80
2021/01/17 06:18:21;;;;;;;25.10;15.77;;;0.60;94.20;;;;;;5051308;28;21036;-80
2021/01/17 06:20:48;;;;;;;25.23;16.85;;;0.60;94.00;;;;;;5052138;28;20211;-80
2021/01/17 06:23:21;;;;;;;25.67;17.48;;;0.60;94.10;;;;;;5051521;28;20305;-83
2021/01/17 06:26:01;;;;;;;21.95;17.42;;;0.60;94.00;;;;;;5051459;28;20261;-82
2021/01/17 06:28:39;;;;;;;28.15;19.95;;;0.60;93.90;;;;;;5051438;28;20199;-82
2021/01/17 06:31:06;;;;;;;22.98;16.20;;;0.70;93.90;;;;;;5051880;28;20223;-82
2021/01/17 06:33:33;;;;;;;26.80;19.60;;;0.70;93.90;;;;;;5052133;28;20192;-82
2021/01/17 06:36:11;;;;;;;31.17;18.38;;;0.70;94.20;;;;;;5051258;28;20212;-82
2021/01/17 06:38:37;;;;;;;22.30;17.92;;;0.70;93.90;;;;;;5051045;28;20266;-82
2021/01/17 06:41:04;;;;;;;27.33;18.20;;;0.70;93.80;;;;;;5051296;28;20403;-82
2021/01/17 06:43:31;;;;;;;26.20;18.45;;;0.70;93.80;;;;;;5050696;28;20635;-82
2021/01/17 06:45:59;;;;;;;28.02;18.20;;;0.70;93.80;;;;;;5051294;28;20253;-82
2021/01/17 06:48:26;;;;;;;30.95;18.90;;;0.70;93.80;;;;;;5050681;28;20191;-82
2021/01/17 06:50:53;;;;;;;25.90;17.30;;;0.70;93.80;;;;;;5051022;28;20573;-82
2021/01/17 06:53:22;;;;;;;27.50;19.23;;;0.60;93.90;;;;;;5051490;28;20677;-82
2021/01/17 06:55:48;;;;;;;30.58;19.77;;;0.70;94.00;;;;;;5051758;28;20216;-81
2021/01/17 06:58:17;;;;;;;31.65;20.80;;;0.70;93.90;;;;;;5051170;28;20223;-82
2021/01/17 07:00:45;;;;;;;29.00;19.50;;;0.70;93.80;;;;;;5051294;28;20192;-83
2021/01/17 07:03:16;;;;;;;30.52;19.55;;;0.70;94.00;;;;;;5051239;28;20223;-82
2021/01/17 07:06:05;;;;;;;30.13;18.38;;;0.70;93.80;;;;;;5050997;28;20226;-82
2021/01/17 07:08:54;;;;;;;29.55;20.17;;;0.70;93.80;;;;;;5050730;28;20208;-82
2021/01/17 07:11:47;;;;;;;35.30;19.75;;;0.60;93.80;;;;;;5050554;28;20685;-83
2021/01/17 07:14:16;;;;;;;31.98;21.95;;;0.60;93.80;;;;;;5049352;28;20745;-82
2021/01/17 07:16:47;;;;;;;32.13;20.23;;;0.70;93.80;;;;;;5049210;28;20200;-82
2021/01/17 07:19:19;;;;;;;27.38;19.58;;;0.60;93.60;;;;;;5048875;28;20196;-82
2021/01/17 07:21:49;;;;;;;31.67;19.77;;;0.50;93.70;;;;;;5049153;28;20223;-82
2021/01/17 07:24:19;;;;;;;28.50;18.98;;;0.50;93.70;;;;;;5048933;28;20222;-82
2021/01/17 07:27:02;;;;;;;28.92;18.83;;;0.60;93.70;;;;;;5049405;28;20216;-82
2021/01/17 07:29:34;;;;;;;29.98;18.50;;;0.60;93.70;;;;;;5050467;28;20227;-82
2021/01/17 07:32:00;;;;;;;26.70;17.95;;;0.50;93.70;;;;;;5051292;28;20282;-82
2021/01/17 07:34:31;;;;;;;32.08;19.48;;;0.50;94.10;;;;;;5051259;28;20231;-83
2021/01/17 07:37:01;;;;;;;25.67;18.50;;;0.40;93.90;;;;;;5030332;28;20205;-82
2021/01/17 07:39:33;;;;;;;30.92;19.70;;;0.60;94.20;;;;;;5039696;28;20200;-82
2021/01/17 07:42:01;;;;;;;31.13;20.30;;;0.60;93.90;;;;;;5050613;28;20204;-82
2021/01/17 07:44:32;;;;;;;30.83;20.20;;;0.50;93.90;;;;;;5049367;28;20532;-82
2021/01/17 07:47:04;;;;;;;28.42;19.45;;;0.50;94.10;;;;;;5030961;28;20209;-82
2021/01/17 07:49:35;;;;;;;25.45;19.30;;;0.50;94.20;;;;;;5031466;28;20236;-82
2021/01/17 07:52:03;;;;;;;26.50;19.25;;;0.50;94.20;;;;;;5048598;28;20204;-82
2021/01/17 07:54:34;;;;;;;30.92;21.90;;;0.60;94.20;;;;;;5051391;28;20207;-82
2021/01/17 07:57:08;;;;;;;29.50;20.83;;;0.50;94.20;;;;;;5053700;28;20196;-82
2021/01/17 07:59:34;;;;;;;29.85;20.42;;;0.50;94.30;;;;;;5054576;28;20200;-82
2021/01/17 08:02:01;;;;;;;33.38;21.65;;;0.60;94.40;;;;;;5054441;28;20204;-83
2021/01/17 08:04:29;;;;;;;36.58;21.60;;;0.60;94.70;;;;;;5053560;28;20245;-84
2021/01/17 08:06:58;;;;;;;29.80;19.20;;;0.60;94.60;;;;;;5053074;28;20657;-84
2021/01/17 08:09:47;;;;;;;35.47;21.23;;;0.70;94.70;;;;;;5052637;28;20572;-84
2021/01/17 08:12:44;;;;;;;31.42;24.23;;;0.60;94.60;;;;;;5049466;28;21304;-84
2021/01/17 08:15:30;;;;;;;28.83;21.38;;;0.80;94.80;;;;;;5010451;28;20694;-84
2021/01/17 08:17:56;;;;;;;29.77;20.50;;;0.80;94.50;;;;;;5048220;28;20692;-84
2021/01/17 08:20:31;;;;;;;35.95;21.80;;;0.90;94.50;;;;;;5052117;28;20196;-84
2021/01/17 08:23:04;;;;;;;35.63;21.38;;;0.90;94.40;;;;;;5052933;28;20290;-84
2021/01/17 08:25:56;;;;;;;32.00;20.45;;;0.90;94.40;;;;;;5052457;28;20208;-84
2021/01/17 08:28:47;;;;;;;28.83;20.10;;;1.00;94.30;;;;;;5051464;28;20204;-84
2021/01/17 08:31:43;;;;;;;30.45;20.30;;;1.10;94.30;;;;;;5052114;28;20204;-84
2021/01/17 08:34:14;;;;;;;27.45;20.13;;;1.10;94.40;;;;;;5051273;28;20203;-84
2021/01/17 08:36:46;;;;;;;31.90;20.85;;;1.10;94.40;;;;;;5050518;28;20200;-84
2021/01/17 08:39:14;;;;;;;25.08;18.90;;;1.20;94.40;;;;;;5051287;28;20196;-84
2021/01/17 08:41:41;;;;;;;29.45;19.25;;;1.30;94.30;;;;;;5052176;28;20192;-84
2021/01/17 08:44:13;;;;;;;34.53;20.92;;;1.30;94.40;;;;;;5052294;28;20310;-84
2021/01/17 08:46:41;;;;;;;29.48;19.13;;;1.30;94.20;;;;;;5052209;28;20289;-84
2021/01/17 08:49:09;;;;;;;29.90;20.02;;;1.40;94.20;;;;;;5051879;28;20294;-84
2021/01/17 08:51:36;;;;;;;30.80;18.73;;;1.50;94.30;;;;;;5052447;28;20286;-82
2021/01/17 08:54:25;;;;;;;29.63;19.05;;;1.50;94.30;;;;;;5052823;28;20684;-82
2021/01/17 08:56:53;;;;;;;29.27;20.58;;;1.50;94.20;;;;;;5051589;28;20222;-81
2021/01/17 08:59:38;;;;;;;29.95;19.85;;;1.60;94.30;;;;;;5051952;28;20748;-82
2021/01/17 09:02:05;;;;;;;29.75;19.00;;;1.50;94.20;;;;;;5032521;28;20226;-84
2021/01/17 09:04:33;;;;;;;29.65;16.95;;;1.70;94.60;;;;;;5046268;28;20224;-84
2021/01/17 09:06:59;;;;;;;32.22;18.40;;;1.70;94.40;;;;;;5050746;28;20299;-83
2021/01/17 09:09:26;;;;;;;28.13;20.30;;;1.70;94.50;;;;;;5052004;28;20726;-83
2021/01/17 09:11:53;;;;;;;24.80;16.58;;;1.70;94.40;;;;;;5051657;28;20211;-84
2021/01/17 09:14:30;;;;;;;27.42;18.63;;;1.70;94.40;;;;;;5051881;28;20489;-84
2021/01/17 09:16:59;;;;;;;28.10;19.58;;;1.60;94.40;;;;;;5051577;28;20203;-83
2021/01/17 09:19:29;;;;;;;23.50;16.55;;;1.70;94.80;;;;;;5052037;28;20200;-84
2021/01/17 09:21:56;;;;;;;32.15;18.83;;;1.80;94.90;;;;;;5051800;28;20669;-84
2021/01/17 09:24:25;;;;;;;25.92;18.92;;;1.70;94.60;;;;;;5051270;28;20591;-84
2021/01/17 09:26:54;;;;;;;25.88;18.50;;;1.80;95.00;;;;;;5050183;28;20228;-83
2021/01/17 09:29:29;;;;;;;28.08;18.75;;;1.70;94.80;;;;;;5052783;28;20204;-83
2021/01/17 09:31:58;;;;;;;26.20;17.13;;;1.80;95.20;;;;;;5052292;28;20200;-84
2021/01/17 09:34:27;;;;;;;25.90;15.93;;;1.90;95.10;;;;;;5051185;28;20196;-84
2021/01/17 09:36:55;;;;;;;24.73;17.17;;;1.80;94.60;;;;;;5031605;28;20208;-83
2021/01/17 09:39:29;;;;;;;24.48;16.85;;;1.90;95.00;;;;;;5042580;28;20208;-84
2021/01/17 09:41:57;;;;;;;21.83;14.70;;;2.00;95.00;;;;;;5051576;28;20211;-84
2021/01/17 09:44:23;;;;;;;21.65;15.32;;;2.00;94.80;;;;;;5051158;28;20220;-84
2021/01/17 09:46:50;;;;;;;24.60;15.90;;;2.00;94.90;;;;;;5050910;28;20203;-84
2021/01/17 09:49:22;;;;;;;22.75;15.60;;;2.10;95.00;;;;;;5051231;28;20654;-84
2021/01/17 09:51:49;;;;;;;25.50;14.95;;;2.10;94.90;;;;;;5050638;28;20208;-84
2021/01/17 09:54:16;;;;;;;23.85;15.95;;;2.20;95.20;;;;;;5051114;28;20661;-84
2021/01/17 09:56:44;;;;;;;17.33;13.80;;;2.10;95.30;;;;;;5051311;28;20552;-84
2021/01/17 09:59:16;;;;;;;21.88;15.45;;;2.20;95.40;;;;;;5050943;28;20200;-84
2021/01/17 10:01:43;;;;;;;22.95;14.07;;;2.40;95.30;;;;;;5051200;28;20200;-85
2021/01/17 10:04:20;;;;;;;26.48;13.90;;;2.60;95.20;;;;;;5063576;28;20303;-84
2021/01/17 10:06:48;;;;;;;21.77;15.00;;;2.70;95.00;;;;;;5060532;28;20705;-84
2021/01/17 10:09:16;;;;;;;20.63;14.18;;;2.80;94.80;;;;;;5050852;28;20204;-84
2021/01/17 10:11:42;;;;;;;21.63;14.40;;;2.90;94.60;;;;;;5050590;28;20662;-84
2021/01/17 10:14:10;;;;;;;19.98;13.90;;;2.90;94.50;;;;;;5051396;28;20207;-84
2021/01/17 10:16:38;;;;;;;19.13;15.63;;;2.90;94.30;;;;;;5050624;28;20199;-85
2021/01/17 10:19:06;;;;;;;24.80;15.10;;;2.90;94.50;;;;;;5050331;28;20249;-84
2021/01/17 10:21:37;;;;;;;22.08;15.18;;;3.00;94.60;;;;;;5051002;28;20298;-84
2021/01/17 10:24:05;;;;;;;22.23;15.13;;;3.00;94.40;;;;;;5050306;28;20228;-84
2021/01/17 10:26:34;;;;;;;19.92;15.57;;;2.90;94.30;;;;;;5050594;28;20243;-84
2021/01/17 10:29:06;;;;;;;21.10;14.48;;;3.10;94.80;;;;;;5049667;28;20211;-85
2021/01/17 10:31:36;;;;;;;24.88;15.20;;;3.10;94.40;;;;;;5051056;28;20204;-85
2021/01/17 10:34:04;;;;;;;27.23;17.30;;;3.00;94.30;;;;;;5050719;28;20283;-84
2021/01/17 10:36:31;;;;;;;23.52;14.25;;;3.00;94.30;;;;;;5050971;28;20196;-84
2021/01/17 10:38:57;;;;;;;29.17;16.50;;;3.10;94.40;;;;;;5050476;28;20660;-84
2021/01/17 10:41:26;;;;;;;22.23;16.27;;;3.10;94.40;;;;;;5050557;28;20677;-85
2021/01/17 10:44:11;;;;;;;20.58;15.40;;;3.00;94.30;;;;;;5050677;28;20220;-84
2021/01/17 10:46:45;;;;;;;19.83;13.65;;;3.10;94.70;;;;;;5047356;28;20204;-84
2021/01/17 10:49:18;;;;;;;20.20;14.30;;;3.10;94.50;;;;;;5050400;28;20214;-84
2021/01/17 10:51:50;;;;;;;19.75;14.55;;;3.20;94.60;;;;;;5047182;28;20233;-85
2021/01/17 10:54:25;;;;;;;18.63;13.73;;;3.20;94.40;;;;;;5050527;28;20195;-85
2021/01/17 10:56:53;;;;;;;17.58;12.13;;;3.20;94.40;;;;;;5049906;28;20568;-84
2021/01/17 10:59:26;;;;;;;18.45;13.00;;;2.80;94.10;;;;;;5050398;28;20582;-85
2021/01/17 11:01:52;;;;;;;20.05;12.38;;;2.80;95.00;;;;;;5049793;28;20605;-85
2021/01/17 11:04:25;;;;;;;17.92;12.70;;;3.10;95.10;;;;;;5050806;28;20220;-85
2021/01/17 11:06:58;;;;;;;22.17;15.63;;;3.10;94.90;;;;;;5051965;28;20211;-84
2021/01/17 11:09:27;;;;;;;18.20;12.38;;;3.20;94.70;;;;;;5070814;28;20211;-84
2021/01/17 11:11:54;;;;;;;19.10;12.75;;;3.30;94.70;;;;;;5055822;28;20242;-85
2021/01/17 11:14:26;;;;;;;16.85;12.98;;;3.30;94.30;;;;;;5050349;28;20199;-84
2021/01/17 11:16:54;;;;;;;21.30;15.60;;;3.30;94.30;;;;;;5053005;28;20886;-84
2021/01/17 11:19:32;;;;;;;17.55;11.48;;;3.30;94.40;;;;;;5050375;28;20208;-84
2021/01/17 11:21:59;;;;;;;18.17;11.93;;;3.40;94.50;;;;;;5050271;28;20678;-84
2021/01/17 11:24:33;;;;;;;17.55;12.88;;;3.40;94.40;;;;;;5063053;28;20227;-84
2021/01/17 11:27:15;;;;;;;16.70;12.73;;;3.30;94.40;;;;;;5054547;28;20192;-84
2021/01/17 11:29:43;;;;;;;15.88;12.77;;;3.20;94.90;;;;;;5044296;28;20208;-85
2021/01/17 11:32:11;;;;;;;16.95;13.55;;;3.20;94.90;;;;;;5053696;28;20208;-85
2021/01/17 11:34:56;;;;;;;18.50;15.13;;;3.30;95.00;;;;;;5055730;28;20218;-85
2021/01/17 11:37:32;;;;;;;19.17;14.27;;;3.30;95.10;;;;;;5053732;28;20236;-85
2021/01/17 11:40:09;;;;;;;18.52;12.95;;;3.30;95.20;;;;;;5053438;28;20207;-84
2021/01/17 11:42:36;;;;;;;18.02;13.75;;;3.30;95.20;;;;;;5053725;28;20208;-85
2021/01/17 11:45:17;;;;;;;15.50;11.18;;;3.30;95.30;;;;;;5053599;28;20203;-85
2021/01/17 11:47:43;;;;;;;18.98;11.77;;;3.30;95.20;;;;;;5053273;28;20230;-85
2021/01/17 11:50:18;;;;;;;16.85;11.40;;;3.30;95.30;;;;;;5053308;28;20224;-85
2021/01/17 11:52:56;;;;;;;17.50;11.25;;;2.90;95.40;;;;;;5053726;28;20325;-85
2021/01/17 11:55:22;;;;;;;18.02;11.57;;;2.90;95.80;;;;;;5053416;28;20199;-84
2021/01/17 11:57:49;;;;;;;15.88;10.40;;;3.00;96.00;;;;;;5052355;28;20196;-85
2021/01/17 12:00:17;;;;;;;16.33;11.70;;;3.10;96.00;;;;;;5053572;28;20254;-84
2021/01/17 12:02:46;;;;;;;17.73;11.68;;;3.00;95.90;;;;;;5053027;28;20207;-84
2021/01/17 12:05:17;;;;;;;14.20;10.30;;;2.70;95.80;;;;;;5052879;28;20552;-84
2021/01/17 12:07:59;;;;;;;12.48;10.23;;;2.40;96.60;;;;;;5052435;28;20581;-84
2021/01/17 12:10:26;;;;;;;14.63;9.95;;;2.30;97.10;;;;;;5053402;28;20192;-84
2021/01/17 12:12:53;;;;;;;12.75;9.70;;;2.40;97.40;;;;;;5051637;28;20738;-84
2021/01/17 12:15:27;;;;;;;14.82;9.63;;;2.20;97.70;;;;;;5051654;28;20253;-83
2021/01/17 12:17:57;;;;;;;13.50;9.77;;;2.20;97.70;;;;;;5052105;28;20286;-84
2021/01/17 12:20:25;;;;;;;15.77;10.73;;;2.10;97.70;;;;;;5052726;28;20207;-84
2021/01/17 12:22:51;;;;;;;13.65;9.65;;;2.40;98.20;;;;;;5052937;28;20251;-81
2021/01/17 12:25:18;;;;;;;15.07;10.65;;;2.60;97.80;;;;;;5052138;28;20204;-81
2021/01/17 12:27:45;;;;;;;15.85;12.45;;;2.70;97.40;;;;;;5050394;28;20204;-81
2021/01/17 12:30:13;;;;;;;15.70;11.05;;;2.90;97.30;;;;;;5052069;28;20746;-82
2021/01/17 12:32:39;;;;;;;16.35;10.40;;;3.00;96.90;;;;;;5053642;28;20239;-83
2021/01/17 12:35:06;;;;;;;14.30;10.93;;;2.90;96.60;;;;;;5055798;28;20601;-82
2021/01/17 12:37:34;;;;;;;14.60;10.43;;;2.90;96.80;;;;;;5072120;28;20210;-82
2021/01/17 12:40:00;;;;;;;16.23;9.75;;;2.90;96.50;;;;;;5068777;28;20565;-83
2021/01/17 12:42:28;;;;;;;13.23;10.38;;;3.00;96.80;;;;;;5050962;28;20257;-83
2021/01/17 12:44:55;;;;;;;13.32;9.25;;;3.10;96.90;;;;;;5052208;28;20610;-83
2021/01/17 12:47:21;;;;;;;12.60;10.07;;;2.90;96.70;;;;;;5050709;28;20257;-82
2021/01/17 12:49:48;;;;;;;15.95;9.25;;;2.90;96.80;;;;;;5051359;28;20208;-83
2021/01/17 12:52:14;;;;;;;11.27;8.20;;;3.00;96.80;;;;;;5054121;28;20270;-83